sensor_id;sensor_type;location;lat;lon;timestamp;pressure;altitude;pressure_sealevel;temperature;humidity
36304;BME280;22335;49.800;8.596;2023-03-31T00:03:55;99742.81;;;16.10;55.20
36304;BME280;22335;49.800;8.596;2023-03-31T00:10:45;99734.31;;;15.82;56.09
36304;BME280;22335;49.800;8.596;2023-03-31T00:17:29;99722.41;;;15.69;56.72
36304;BME280;22335;49.800;8.596;2023-03-31T00:24:15;99715.00;;;15.61;56.84
36304;BME280;22335;49.800;8.596;2023-03-31T00:30:59;99709.22;;;15.54;57.59
36304;BME280;22335;49.800;8.596;2023-03-31T00:37:43;99637.59;;;15.12;57.62
36304;BME280;22335;49.800;8.596;2023-03-31T00:44:29;99672.53;;;15.41;58.19
36304;BME280;22335;49.800;8.596;2023-03-31T00:51:17;99658.81;;;15.32;58.50
36304;BME280;22335;49.800;8.596;2023-03-31T00:58:02;99655.59;;;15.30;58.49
36304;BME280;22335;49.800;8.596;2023-03-31T01:04:51;99646.72;;;15.25;58.77
36304;BME280;22335;49.800;8.596;2023-03-31T01:11:39;99642.41;;;15.15;58.99
36304;BME280;22335;49.800;8.596;2023-03-31T01:18:23;99629.31;;;15.12;59.15
36304;BME280;22335;49.800;8.596;2023-03-31T01:25:57;99614.31;;;15.01;59.22
36304;BME280;22335;49.800;8.596;2023-03-31T01:33:08;99592.78;;;15.03;59.44
36304;BME280;22335;49.800;8.596;2023-03-31T01:47:17;99578.72;;;14.95;59.60
36304;BME280;22335;49.800;8.596;2023-03-31T01:54:10;99577.78;;;14.91;59.52
36304;BME280;22335;49.800;8.596;2023-03-31T02:01:05;99557.75;;;14.82;60.03
36304;BME280;22335;49.800;8.596;2023-03-31T02:07:57;99552.13;;;14.79;59.97
36304;BME280;22335;49.800;8.596;2023-03-31T02:14:44;99498.41;;;14.51;60.33
36304;BME280;22335;49.800;8.596;2023-03-31T02:21:32;99532.38;;;14.76;60.31
36304;BME280;22335;49.800;8.596;2023-03-31T02:28:20;99525.41;;;14.79;60.69
36304;BME280;22335;49.800;8.596;2023-03-31T02:35:09;99511.91;;;14.86;60.25
36304;BME280;22335;49.800;8.596;2023-03-31T02:41:56;99507.22;;;14.87;60.73
36304;BME280;22335;49.800;8.596;2023-03-31T03:03:54;99469.00;;;14.85;61.75
36304;BME280;22335;49.800;8.596;2023-03-31T03:10:48;99436.88;;;14.89;62.02
36304;BME280;22335;49.800;8.596;2023-03-31T03:17:41;99393.75;;;14.81;61.99
36304;BME280;22335;49.800;8.596;2023-03-31T03:24:27;99375.72;;;14.71;62.33
36304;BME280;22335;49.800;8.596;2023-03-31T03:31:14;99374.75;;;14.67;62.88
36304;BME280;22335;49.800;8.596;2023-03-31T03:37:58;99347.34;;;14.59;62.88
36304;BME280;22335;49.800;8.596;2023-03-31T03:44:44;99334.25;;;14.56;63.07
36304;BME280;22335;49.800;8.596;2023-03-31T03:51:27;99317.09;;;14.38;63.36
36304;BME280;22335;49.800;8.596;2023-03-31T03:58:11;99304.50;;;14.49;63.25
36304;BME280;22335;49.800;8.596;2023-03-31T04:04:55;99283.84;;;14.43;63.12
36304;BME280;22335;49.800;8.596;2023-03-31T04:11:40;99262.25;;;14.53;62.95
36304;BME280;22335;49.800;8.596;2023-03-31T04:18:23;99281.75;;;14.61;62.75
36304;BME280;22335;49.800;8.596;2023-03-31T04:25:10;99272.22;;;14.58;63.08
36304;BME280;22335;49.800;8.596;2023-03-31T04:31:56;99256.88;;;14.57;62.79
36304;BME280;22335;49.800;8.596;2023-03-31T04:38:40;99230.38;;;14.52;62.63
36304;BME280;22335;49.800;8.596;2023-03-31T04:45:28;99199.16;;;14.48;62.68
36304;BME280;22335;49.800;8.596;2023-03-31T04:52:12;99198.91;;;14.41;62.70
36304;BME280;22335;49.800;8.596;2023-03-31T04:58:55;99223.00;;;14.44;62.81
36304;BME280;22335;49.800;8.596;2023-03-31T05:05:40;99202.97;;;14.11;63.90
36304;BME280;22335;49.800;8.596;2023-03-31T05:12:23;99226.28;;;14.25;64.86
36304;BME280;22335;49.800;8.596;2023-03-31T05:19:07;99216.81;;;14.14;65.61
36304;BME280;22335;49.800;8.596;2023-03-31T05:25:51;99202.25;;;14.01;66.94
36304;BME280;22335;49.800;8.596;2023-03-31T05:32:35;99191.19;;;13.89;67.86
36304;BME280;22335;49.800;8.596;2023-03-31T05:39:18;99191.88;;;13.86;68.17
36304;BME280;22335;49.800;8.596;2023-03-31T05:46:03;99094.94;;;13.44;68.46
36304;BME280;22335;49.800;8.596;2023-03-31T05:52:47;99138.69;;;13.70;69.67
36304;BME280;22335;49.800;8.596;2023-03-31T05:59:31;99124.66;;;13.63;70.58
36304;BME280;22335;49.800;8.596;2023-03-31T06:06:17;99107.25;;;13.58;71.10
36304;BME280;22335;49.800;8.596;2023-03-31T06:13:01;99101.78;;;13.58;71.37
36304;BME280;22335;49.800;8.596;2023-03-31T06:19:45;99053.34;;;13.54;72.23
36304;BME280;22335;49.800;8.596;2023-03-31T06:26:29;99038.78;;;13.41;73.40
36304;BME280;22335;49.800;8.596;2023-03-31T06:33:13;99021.16;;;13.42;73.39
36304;BME280;22335;49.800;8.596;2023-03-31T06:39:56;99002.41;;;13.44;74.32
36304;BME280;22335;49.800;8.596;2023-03-31T06:46:41;98984.88;;;13.49;74.63
36304;BME280;22335;49.800;8.596;2023-03-31T06:53:25;98995.06;;;13.48;74.88
36304;BME280;22335;49.800;8.596;2023-03-31T07:00:09;98986.94;;;13.52;74.27
36304;BME280;22335;49.800;8.596;2023-03-31T07:06:57;98854.91;;;12.66;74.58
36304;BME280;22335;49.800;8.596;2023-03-31T07:13:41;98973.69;;;13.54;75.33
36304;BME280;22335;49.800;8.596;2023-03-31T07:20:24;98980.53;;;13.48;75.63
36304;BME280;22335;49.800;8.596;2023-03-31T07:27:10;98995.56;;;13.50;76.73
36304;BME280;22335;49.800;8.596;2023-03-31T07:33:53;98994.84;;;13.41;78.42
36304;BME280;22335;49.800;8.596;2023-03-31T07:40:38;98955.47;;;13.16;78.89
36304;BME280;22335;49.800;8.596;2023-03-31T07:47:23;99007.53;;;13.46;79.07
36304;BME280;22335;49.800;8.596;2023-03-31T07:54:07;99009.94;;;13.35;78.45
36304;BME280;22335;49.800;8.596;2023-03-31T08:00:51;98967.69;;;13.06;76.15
36304;BME280;22335;49.800;8.596;2023-03-31T08:07:37;99005.84;;;13.66;74.33
36304;BME280;22335;49.800;8.596;2023-03-31T08:14:22;99016.88;;;13.90;74.32
36304;BME280;22335;49.800;8.596;2023-03-31T08:21:11;99014.41;;;14.22;73.62
36304;BME280;22335;49.800;8.596;2023-03-31T08:27:55;99014.94;;;14.40;72.36
36304;BME280;22335;49.800;8.596;2023-03-31T08:34:39;99040.66;;;14.56;71.54
36304;BME280;22335;49.800;8.596;2023-03-31T08:41:35;98985.63;;;14.19;71.50
36304;BME280;22335;49.800;8.596;2023-03-31T08:48:29;98966.59;;;14.26;71.68
36304;BME280;22335;49.800;8.596;2023-03-31T08:55:21;98986.75;;;14.55;71.90
36304;BME280;22335;49.800;8.596;2023-03-31T09:02:15;98985.25;;;14.45;72.92
36304;BME280;22335;49.800;8.596;2023-03-31T09:09:10;98961.66;;;14.32;75.52
36304;BME280;22335;49.800;8.596;2023-03-31T09:16:34;98957.09;;;14.12;76.54
36304;BME280;22335;49.800;8.596;2023-03-31T09:23:25;98927.81;;;14.03;78.03
36304;BME280;22335;49.800;8.596;2023-03-31T09:30:15;98995.56;;;14.48;77.41
36304;BME280;22335;49.800;8.596;2023-03-31T09:37:00;98971.25;;;14.50;76.38
36304;BME280;22335;49.800;8.596;2023-03-31T09:43:45;98982.06;;;14.43;76.46
36304;BME280;22335;49.800;8.596;2023-03-31T09:50:32;98959.22;;;14.43;75.15
36304;BME280;22335;49.800;8.596;2023-03-31T09:57:25;98954.22;;;14.33;74.09
36304;BME280;22335;49.800;8.596;2023-03-31T10:04:18;98947.00;;;14.40;72.65
36304;BME280;22335;49.800;8.596;2023-03-31T10:11:09;98946.50;;;14.50;71.50
36304;BME280;22335;49.800;8.596;2023-03-31T10:17:57;98882.22;;;14.43;70.03
36304;BME280;22335;49.800;8.596;2023-03-31T10:24:42;98936.06;;;14.96;68.89
36304;BME280;22335;49.800;8.596;2023-03-31T10:31:35;98924.00;;;15.17;68.68
36304;BME280;22335;49.800;8.596;2023-03-31T10:38:24;98919.75;;;15.35;67.38
36304;BME280;22335;49.800;8.596;2023-03-31T10:45:12;98912.91;;;15.45;67.00
36304;BME280;22335;49.800;8.596;2023-03-31T10:52:18;98905.56;;;15.65;66.24
36304;BME280;22335;49.800;8.596;2023-03-31T10:59:21;98888.50;;;15.75;66.35
36304;BME280;22335;49.800;8.596;2023-03-31T11:06:20;98886.50;;;15.91;66.45
36304;BME280;22335;49.800;8.596;2023-03-31T11:13:15;98882.91;;;16.07;66.35
36304;BME280;22335;49.800;8.596;2023-03-31T11:20:11;98853.09;;;16.12;65.71
36304;BME280;22335;49.800;8.596;2023-03-31T11:27:06;98849.41;;;16.24;65.70
36304;BME280;22335;49.800;8.596;2023-03-31T11:34:18;98836.16;;;16.30;64.81
36304;BME280;22335;49.800;8.596;2023-03-31T11:41:13;98843.75;;;16.36;64.38
36304;BME280;22335;49.800;8.596;2023-03-31T11:48:02;98711.06;;;15.64;64.09
36304;BME280;22335;49.800;8.596;2023-03-31T11:54:53;98843.97;;;16.28;64.04
36304;BME280;22335;49.800;8.596;2023-03-31T12:01:42;98837.66;;;16.27;64.53
36304;BME280;22335;49.800;8.596;2023-03-31T12:08:34;98860.25;;;16.13;64.90
36304;BME280;22335;49.800;8.596;2023-03-31T12:15:24;98826.97;;;16.06;65.67
36304;BME280;22335;49.800;8.596;2023-03-31T12:22:14;98788.56;;;15.98;65.89
36304;BME280;22335;49.800;8.596;2023-03-31T12:29:19;98803.97;;;15.99;65.51
36304;BME280;22335;49.800;8.596;2023-03-31T12:36:19;98808.75;;;16.02;65.25
36304;BME280;22335;49.800;8.596;2023-03-31T12:43:25;98834.03;;;16.23;64.88
36304;BME280;22335;49.800;8.596;2023-03-31T12:50:40;98809.19;;;16.04;64.13
36304;BME280;22335;49.800;8.596;2023-03-31T12:57:36;98799.56;;;16.13;63.81
36304;BME280;22335;49.800;8.596;2023-03-31T13:04:20;98781.88;;;16.37;64.73
36304;BME280;22335;49.800;8.596;2023-03-31T13:11:03;98762.13;;;16.55;64.75
36304;BME280;22335;49.800;8.596;2023-03-31T13:17:56;98769.75;;;16.62;63.62
36304;BME280;22335;49.800;8.596;2023-03-31T13:24:41;98759.38;;;16.55;62.45
36304;BME280;22335;49.800;8.596;2023-03-31T13:39:00;98837.63;;;15.57;61.04
36304;BME280;22335;49.800;8.596;2023-03-31T13:46:22;98826.81;;;15.64;62.21
36304;BME280;22335;49.800;8.596;2023-03-31T13:53:50;98814.69;;;15.84;62.53
36304;BME280;22335;49.800;8.596;2023-03-31T14:01:20;98800.03;;;16.00;62.44
36304;BME280;22335;49.800;8.596;2023-03-31T14:08:44;98790.59;;;16.01;62.50
36304;BME280;22335;49.800;8.596;2023-03-31T14:15:31;98785.06;;;15.81;63.12
36304;BME280;22335;49.800;8.596;2023-03-31T14:22:20;98782.81;;;15.67;63.94
36304;BME280;22335;49.800;8.596;2023-03-31T14:29:14;98765.09;;;15.68;64.88
36304;BME280;22335;49.800;8.596;2023-03-31T14:36:07;98760.66;;;15.64;66.38
36304;BME280;22335;49.800;8.596;2023-03-31T14:42:57;98752.19;;;15.73;66.89
36304;BME280;22335;49.800;8.596;2023-03-31T14:49:41;98749.59;;;15.80;66.47
36304;BME280;22335;49.800;8.596;2023-03-31T14:56:29;98740.25;;;15.84;65.49
36304;BME280;22335;49.800;8.596;2023-03-31T15:03:17;98719.94;;;15.93;65.34
36304;BME280;22335;49.800;8.596;2023-03-31T15:10:02;98827.34;;;16.05;63.48
36304;BME280;22335;49.800;8.596;2023-03-31T15:16:48;98808.41;;;15.68;62.01
36304;BME280;22335;49.800;8.596;2023-03-31T15:23:34;98799.69;;;15.50;61.97
36304;BME280;22335;49.800;8.596;2023-03-31T15:30:19;98794.09;;;15.47;61.62
36304;BME280;22335;49.800;8.596;2023-03-31T15:37:05;98740.59;;;14.96;62.45
36304;BME280;22335;49.800;8.596;2023-03-31T15:44:03;98791.56;;;15.06;63.16
36304;BME280;22335;49.800;8.596;2023-03-31T15:50:48;98781.09;;;15.12;62.52
36304;BME280;22335;49.800;8.596;2023-03-31T15:57:34;98778.69;;;14.94;62.37
36304;BME280;22335;49.800;8.596;2023-03-31T16:04:19;98769.69;;;14.82;63.00
36304;BME280;22335;49.800;8.596;2023-03-31T16:11:06;98730.34;;;14.49;63.54
36304;BME280;22335;49.800;8.596;2023-03-31T16:17:54;98770.03;;;14.64;64.30
36304;BME280;22335;49.800;8.596;2023-03-31T16:24:41;98709.09;;;14.34;65.24
36304;BME280;22335;49.800;8.596;2023-03-31T16:31:31;98753.44;;;14.61;65.55
36304;BME280;22335;49.800;8.596;2023-03-31T16:38:16;98757.34;;;14.60;66.01
36304;BME280;22335;49.800;8.596;2023-03-31T16:45:03;98756.19;;;14.61;66.30
36304;BME280;22335;49.800;8.596;2023-03-31T16:51:50;98753.81;;;14.59;66.96
36304;BME280;22335;49.800;8.596;2023-03-31T16:58:34;98765.75;;;14.51;66.46
36304;BME280;22335;49.800;8.596;2023-03-31T17:05:20;98759.25;;;14.43;66.89
36304;BME280;22335;49.800;8.596;2023-03-31T17:12:04;98763.50;;;14.41;66.22
36304;BME280;22335;49.800;8.596;2023-03-31T17:18:47;98778.03;;;14.41;66.24
36304;BME280;22335;49.800;8.596;2023-03-31T17:25:32;98767.94;;;14.45;65.83
36304;BME280;22335;49.800;8.596;2023-03-31T17:32:16;98767.50;;;14.43;65.46
36304;BME280;22335;49.800;8.596;2023-03-31T17:39:01;98773.72;;;14.40;65.73
36304;BME280;22335;49.800;8.596;2023-03-31T17:45:46;98772.53;;;14.41;64.96
36304;BME280;22335;49.800;8.596;2023-03-31T17:52:30;98773.09;;;14.47;64.43
36304;BME280;22335;49.800;8.596;2023-03-31T17:59:13;98789.59;;;14.47;63.80
36304;BME280;22335;49.800;8.596;2023-03-31T18:06:03;98805.88;;;14.52;63.43
36304;BME280;22335;49.800;8.596;2023-03-31T18:12:47;98815.06;;;14.72;63.12
36304;BME280;22335;49.800;8.596;2023-03-31T18:19:31;98804.22;;;14.79;63.00
36304;BME280;22335;49.800;8.596;2023-03-31T18:26:16;98834.25;;;14.84;62.13
36304;BME280;22335;49.800;8.596;2023-03-31T18:33:00;98845.00;;;14.89;61.86
36304;BME280;22335;49.800;8.596;2023-03-31T18:39:43;98833.97;;;14.89;61.23
36304;BME280;22335;49.800;8.596;2023-03-31T18:46:28;98827.13;;;14.83;61.14
36304;BME280;22335;49.800;8.596;2023-03-31T18:53:11;98836.47;;;14.79;61.05
36304;BME280;22335;49.800;8.596;2023-03-31T18:59:55;98840.38;;;14.78;60.82
36304;BME280;22335;49.800;8.596;2023-03-31T19:06:41;98823.75;;;14.74;60.92
36304;BME280;22335;49.800;8.596;2023-03-31T19:13:24;98816.47;;;14.66;61.28
36304;BME280;22335;49.800;8.596;2023-03-31T19:20:08;98802.94;;;14.33;61.09
36304;BME280;22335;49.800;8.596;2023-03-31T19:26:58;98839.75;;;14.28;60.99
36304;BME280;22335;49.800;8.596;2023-03-31T19:33:41;98841.22;;;13.97;61.73
36304;BME280;22335;49.800;8.596;2023-03-31T19:40:24;98854.28;;;13.88;62.18
36304;BME280;22335;49.800;8.596;2023-03-31T19:47:09;98853.25;;;13.80;62.58
36304;BME280;22335;49.800;8.596;2023-03-31T19:53:53;98859.34;;;13.74;62.40
36304;BME280;22335;49.800;8.596;2023-03-31T20:00:37;98807.00;;;13.21;62.66
36304;BME280;22335;49.800;8.596;2023-03-31T20:07:22;98873.31;;;13.56;62.96
36304;BME280;22335;49.800;8.596;2023-03-31T20:14:06;98870.22;;;13.58;63.32
36304;BME280;22335;49.800;8.596;2023-03-31T20:20:50;98871.38;;;13.57;63.21
36304;BME280;22335;49.800;8.596;2023-03-31T20:27:46;98866.88;;;13.52;63.31
36304;BME280;22335;49.800;8.596;2023-03-31T20:34:29;98873.44;;;13.48;63.25
36304;BME280;22335;49.800;8.596;2023-03-31T20:41:14;98866.19;;;13.43;63.20
36304;BME280;22335;49.800;8.596;2023-03-31T20:47:59;98873.66;;;13.43;62.94
36304;BME280;22335;49.800;8.596;2023-03-31T20:54:42;98841.44;;;13.19;63.33
36304;BME280;22335;49.800;8.596;2023-03-31T21:01:27;98876.84;;;13.45;63.15
36304;BME280;22335;49.800;8.596;2023-03-31T21:08:13;98872.72;;;13.38;63.27
36304;BME280;22335;49.800;8.596;2023-03-31T21:14:57;98879.81;;;13.40;63.84
36304;BME280;22335;49.800;8.596;2023-03-31T21:21:42;98883.59;;;13.35;64.16
36304;BME280;22335;49.800;8.596;2023-03-31T21:28:28;98877.63;;;13.33;64.15
36304;BME280;22335;49.800;8.596;2023-03-31T21:35:12;98880.38;;;13.33;64.11
36304;BME280;22335;49.800;8.596;2023-03-31T21:41:57;98883.69;;;13.26;64.10
36304;BME280;22335;49.800;8.596;2023-03-31T21:48:43;98888.03;;;13.27;63.64
36304;BME280;22335;49.800;8.596;2023-03-31T21:55:26;98836.81;;;12.86;63.37
36304;BME280;22335;49.800;8.596;2023-03-31T22:02:10;98891.94;;;13.26;63.50
36304;BME280;22335;49.800;8.596;2023-03-31T22:08:55;98897.88;;;13.28;63.44
36304;BME280;22335;49.800;8.596;2023-03-31T22:15:39;98891.16;;;13.26;63.45
36304;BME280;22335;49.800;8.596;2023-03-31T22:22:22;98890.78;;;13.27;63.35
36304;BME280;22335;49.800;8.596;2023-03-31T22:29:10;98903.50;;;13.32;63.59
36304;BME280;22335;49.800;8.596;2023-03-31T22:35:55;98902.81;;;13.35;63.49
36304;BME280;22335;49.800;8.596;2023-03-31T22:42:38;98901.00;;;13.39;63.27
36304;BME280;22335;49.800;8.596;2023-03-31T22:49:23;98896.09;;;13.45;62.96
36304;BME280;22335;49.800;8.596;2023-03-31T22:56:10;98884.53;;;13.64;62.26
36304;BME280;22335;49.800;8.596;2023-03-31T23:02:55;98895.53;;;13.76;62.05
36304;BME280;22335;49.800;8.596;2023-03-31T23:09:40;98894.16;;;13.82;61.12
36304;BME280;22335;49.800;8.596;2023-03-31T23:16:24;98898.16;;;13.84;61.22
36304;BME280;22335;49.800;8.596;2023-03-31T23:23:08;98848.34;;;13.61;60.37
36304;BME280;22335;49.800;8.596;2023-03-31T23:29:53;98884.16;;;13.90;60.13
36304;BME280;22335;49.800;8.596;2023-03-31T23:36:37;98894.56;;;13.84;59.93
36304;BME280;22335;49.800;8.596;2023-03-31T23:43:20;98893.34;;;13.81;60.09
36304;BME280;22335;49.800;8.596;2023-03-31T23:50:06;98897.47;;;13.88;59.74
36304;BME280;22335;49.800;8.596;2023-03-31T23:56:51;98853.16;;;13.65;59.33
